Time;durP1;ratioP1;P1;durP2;ratioP2;P2;SDS_P1;SDS_P2;PMS_P1;PMS_P2;Temp;Humidity;BMP_temperature;BMP_pressure;BME280_temperature;BME280_humidity;BME280_pressure;Samples;Min_cycle;Max_cycle;Signal;HPM_P1;HPM_P2
2022/07/23 00:01:47;;;;;;;4.50;3.13;;;24.20;79.70;;;;;;4971882;28;20461;-70
2022/07/23 00:04:13;;;;;;;5.47;3.00;;;24.10;80.00;;;;;;4972183;28;20465;-70
2022/07/23 00:06:42;;;;;;;4.67;2.90;;;24.20;80.20;;;;;;4969523;28;20783;-70
2022/07/23 00:09:13;;;;;;;4.30;2.97;;;24.10;80.10;;;;;;4972918;28;20431;-70
2022/07/23 00:11:39;;;;;;;4.97;3.07;;;24.10;80.40;;;;;;4972324;28;20464;-70
2022/07/23 00:14:12;;;;;;;7.13;3.47;;;24.10;80.50;;;;;;4939754;28;20406;-70
2022/07/23 00:16:40;;;;;;;3.53;3.23;;;24.10;80.50;;;;;;4971606;28;20459;-70
2022/07/23 00:19:11;;;;;;;4.17;3.03;;;24.10;80.70;;;;;;4970950;28;20815;-70
2022/07/23 00:21:37;;;;;;;3.37;3.07;;;24.10;80.70;;;;;;4971371;28;20474;-69
2022/07/23 00:24:06;;;;;;;3.37;3.07;;;24.10;80.60;;;;;;4970407;28;20439;-70
2022/07/23 00:26:34;;;;;;;3.20;2.90;;;24.10;80.70;;;;;;4971057;28;20825;-70
2022/07/23 00:29:00;;;;;;;4.33;3.20;;;24.10;80.70;;;;;;4970726;28;20422;-70
2022/07/23 00:31:27;;;;;;;4.13;2.80;;;24.10;80.80;;;;;;4971680;28;20960;-70
2022/07/23 00:34:00;;;;;;;5.10;3.50;;;24.10;81.00;;;;;;4951872;28;20477;-70
2022/07/23 00:36:31;;;;;;;6.13;3.57;;;24.10;80.80;;;;;;4968325;28;20504;-70
2022/07/23 00:38:57;;;;;;;4.70;2.80;;;24.00;80.80;;;;;;4971412;28;20446;-70
2022/07/23 00:41:25;;;;;;;5.80;3.57;;;24.00;81.20;;;;;;4971279;28;20827;-70
2022/07/23 00:43:54;;;;;;;4.20;3.80;;;24.00;81.30;;;;;;4971696;28;20445;-70
2022/07/23 00:46:24;;;;;;;3.70;3.40;;;24.00;81.20;;;;;;4968884;28;20433;-70
2022/07/23 00:48:51;;;;;;;3.40;3.10;;;24.00;81.30;;;;;;4955470;28;20418;-70
2022/07/23 00:51:18;;;;;;;4.50;3.53;;;24.00;81.30;;;;;;4955543;28;20874;-70
2022/07/23 00:53:44;;;;;;;3.20;2.90;;;23.90;81.20;;;;;;4952359;29;20868;-70
2022/07/23 00:56:13;;;;;;;3.67;3.17;;;24.00;81.50;;;;;;4965929;28;20530;-70
2022/07/23 00:58:41;;;;;;;3.40;3.10;;;24.00;81.50;;;;;;4971770;28;20472;-70
2022/07/23 01:01:11;;;;;;;3.60;3.30;;;24.00;81.50;;;;;;4959292;28;20505;-70
2022/07/23 01:03:41;;;;;;;3.13;2.83;;;24.00;81.60;;;;;;4974406;28;20947;-70
2022/07/23 01:06:07;;;;;;;3.87;3.50;;;24.00;81.60;;;;;;4975020;28;20422;-69
2022/07/23 01:08:36;;;;;;;4.40;3.13;;;24.00;81.70;;;;;;4974763;28;20528;-70
2022/07/23 01:11:04;;;;;;;5.80;3.67;;;23.90;81.70;;;;;;4974765;28;20528;-70
2022/07/23 01:13:35;;;;;;;4.10;3.70;;;23.90;81.80;;;;;;4975141;28;20442;-70
2022/07/23 01:16:01;;;;;;;3.80;3.40;;;23.90;81.70;;;;;;4975634;28;20426;-70
2022/07/23 01:18:29;;;;;;;5.00;3.30;;;23.90;81.80;;;;;;4974798;28;20469;-70
2022/07/23 01:20:56;;;;;;;4.23;3.43;;;23.90;81.90;;;;;;4974645;28;21018;-70
2022/07/23 01:23:24;;;;;;;4.80;3.37;;;23.90;82.00;;;;;;4974839;28;20414;-70
2022/07/23 01:25:57;;;;;;;3.70;3.40;;;23.90;81.90;;;;;;4957923;28;20501;-70
2022/07/23 01:28:27;;;;;;;3.87;3.10;;;23.80;82.00;;;;;;4972089;28;20476;-69
2022/07/23 01:31:00;;;;;;;3.40;3.10;;;23.80;82.10;;;;;;4974540;28;20454;-70
2022/07/23 01:33:38;;;;;;;5.20;3.70;;;23.80;82.90;;;;;;4954765;28;20454;-70
2022/07/23 01:36:04;;;;;;;3.20;2.90;;;23.80;82.20;;;;;;4969528;28;20851;-70
2022/07/23 01:38:32;;;;;;;6.00;3.37;;;23.80;82.20;;;;;;4958746;28;20430;-70
2022/07/23 01:40:58;;;;;;;3.43;2.90;;;23.80;82.20;;;;;;4958059;28;20470;-70
2022/07/23 01:43:30;;;;;;;3.00;2.77;;;23.80;82.30;;;;;;4973436;28;21001;-70
2022/07/23 01:45:56;;;;;;;3.67;3.37;;;23.80;82.30;;;;;;4958314;28;20442;-70
2022/07/23 01:48:28;;;;;;;4.53;3.37;;;23.80;82.30;;;;;;4974032;28;20414;-70
2022/07/23 01:51:20;;;;;;;3.73;3.43;;;23.80;82.30;;;;;;4973342;28;20454;-70
2022/07/23 01:53:56;;;;;;;3.90;3.20;;;23.80;82.30;;;;;;4974339;28;20402;-70
2022/07/23 01:56:22;;;;;;;3.30;2.80;;;23.70;82.20;;;;;;4974590;28;20426;-70
2022/07/23 01:58:51;;;;;;;6.77;3.60;;;23.70;82.40;;;;;;4972973;28;20207;-70
2022/07/23 02:01:18;;;;;;;6.17;3.10;;;23.70;82.40;;;;;;4972845;28;20466;-70
2022/07/23 02:03:44;;;;;;;3.30;3.00;;;23.70;82.50;;;;;;4973452;28;20415;-70
2022/07/23 02:06:12;;;;;;;4.40;3.13;;;23.70;82.50;;;;;;4973853;28;20425;-70
2022/07/23 02:08:41;;;;;;;3.43;3.13;;;23.70;82.60;;;;;;4957782;28;20407;-70
2022/07/23 02:11:07;;;;;;;3.40;3.10;;;23.70;82.60;;;;;;4973751;28;20524;-70
2022/07/23 02:13:35;;;;;;;4.57;3.20;;;23.70;82.60;;;;;;4973958;28;20425;-70
2022/07/23 02:16:01;;;;;;;3.60;3.30;;;23.70;82.50;;;;;;4973859;28;20505;-70
2022/07/23 02:18:28;;;;;;;3.63;3.33;;;23.60;82.40;;;;;;4957321;28;20187;-70
2022/07/23 02:20:56;;;;;;;3.70;3.40;;;23.60;82.40;;;;;;4972769;28;20476;-70
2022/07/23 02:23:23;;;;;;;3.57;3.27;;;23.60;82.50;;;;;;4973670;28;20454;-70
2022/07/23 02:25:54;;;;;;;3.40;3.10;;;23.60;82.50;;;;;;4973927;28;20426;-70
2022/07/23 02:28:20;;;;;;;3.50;3.20;;;23.60;82.60;;;;;;4974546;28;20462;-70
2022/07/23 02:30:46;;;;;;;3.70;3.30;;;23.60;82.60;;;;;;4974830;28;20444;-70
2022/07/23 02:33:12;;;;;;;3.37;3.07;;;23.60;82.40;;;;;;4974475;28;20295;-70
2022/07/23 02:35:44;;;;;;;4.20;3.43;;;23.60;82.60;;;;;;4973708;28;20493;-70
2022/07/23 02:38:11;;;;;;;3.63;3.33;;;23.60;82.70;;;;;;4957373;28;20484;-70
2022/07/23 02:40:37;;;;;;;3.47;3.17;;;23.60;82.70;;;;;;4941448;28;20879;-70
2022/07/23 02:43:03;;;;;;;3.07;2.83;;;23.60;82.80;;;;;;4953095;28;20572;-69
2022/07/23 02:45:32;;;;;;;4.43;3.40;;;23.60;82.70;;;;;;5030661;23;20505;-77
2022/07/23 02:47:58;;;;;;;2.90;2.70;;;23.60;82.80;;;;;;4973127;28;20414;-77
2022/07/23 02:50:29;;;;;;;3.50;2.93;;;23.50;82.70;;;;;;4964482;28;20447;-75
2022/07/23 02:52:57;;;;;;;3.83;3.00;;;23.50;82.50;;;;;;4938369;29;20490;-75
2022/07/23 02:55:40;;;;;;;4.40;3.20;;;23.50;82.60;;;;;;4954420;28;20447;-75
2022/07/23 02:58:06;;;;;;;2.93;2.37;;;23.50;82.60;;;;;;4934748;29;20404;-75
2022/07/23 03:00:32;;;;;;;3.60;3.30;;;23.50;82.60;;;;;;4946872;28;20464;-74
2022/07/23 03:03:03;;;;;;;3.87;3.57;;;23.50;82.70;;;;;;4922843;29;20451;-74
2022/07/23 03:05:30;;;;;;;3.63;3.33;;;23.50;82.70;;;;;;4919105;29;20416;-75
2022/07/23 03:07:56;;;;;;;3.40;3.10;;;23.50;82.60;;;;;;4936000;29;20502;-74
2022/07/23 03:10:25;;;;;;;4.60;3.70;;;23.40;82.50;;;;;;4937574;29;20490;-74
2022/07/23 03:12:51;;;;;;;3.60;3.30;;;23.40;82.50;;;;;;4927116;29;20487;-75
2022/07/23 03:15:20;;;;;;;4.07;3.63;;;23.40;82.60;;;;;;4937321;29;21407;-74
2022/07/23 03:17:48;;;;;;;4.10;3.23;;;23.40;82.60;;;;;;4934291;29;21000;-74
2022/07/23 03:20:14;;;;;;;3.17;2.87;;;23.40;82.60;;;;;;4945726;28;20494;-75
2022/07/23 03:22:40;;;;;;;4.70;3.47;;;23.40;82.60;;;;;;4933855;29;20428;-75
2022/07/23 03:25:09;;;;;;;3.97;3.57;;;23.40;82.60;;;;;;4929201;29;20439;-75
2022/07/23 03:27:35;;;;;;;3.23;2.93;;;23.40;82.70;;;;;;4969161;28;20439;-75
2022/07/23 03:30:03;;;;;;;4.40;3.50;;;23.40;82.80;;;;;;4943627;29;20511;-75
2022/07/23 03:32:32;;;;;;;4.07;3.50;;;23.30;82.70;;;;;;4918602;29;20426;-75
2022/07/23 03:35:00;;;;;;;3.03;2.73;;;23.30;82.60;;;;;;4943798;29;20993;-75
2022/07/23 03:37:27;;;;;;;3.37;3.07;;;23.30;82.70;;;;;;4954341;29;20423;-75
2022/07/23 03:39:56;;;;;;;3.93;3.10;;;23.30;82.70;;;;;;4941008;29;20530;-75
2022/07/23 03:42:22;;;;;;;3.17;2.90;;;23.30;82.90;;;;;;4918680;29;20505;-75
2022/07/23 03:44:48;;;;;;;3.60;3.00;;;23.30;82.90;;;;;;4933980;29;20491;-75
2022/07/23 03:47:15;;;;;;;4.00;3.50;;;23.30;82.70;;;;;;4946843;28;20466;-75
2022/07/23 03:49:43;;;;;;;3.47;3.20;;;23.30;82.60;;;;;;4951527;28;20453;-74
2022/07/23 03:52:10;;;;;;;4.67;3.03;;;23.30;82.70;;;;;;4937087;29;20455;-74
2022/07/23 03:54:41;;;;;;;3.33;3.03;;;23.30;82.60;;;;;;4915130;29;21020;-74
2022/07/23 03:57:10;;;;;;;3.70;3.40;;;23.20;83.00;;;;;;4933961;29;20440;-75
2022/07/23 03:59:40;;;;;;;3.80;2.93;;;23.20;82.30;;;;;;4938131;28;20481;-75
2022/07/23 04:02:06;;;;;;;3.20;2.90;;;23.20;82.30;;;;;;4953074;29;20402;-75
2022/07/23 04:04:32;;;;;;;4.67;2.80;;;23.20;82.20;;;;;;4936041;29;20434;-74
2022/07/23 04:06:58;;;;;;;3.40;3.07;;;23.20;82.20;;;;;;4933473;29;20444;-75
2022/07/23 04:09:28;;;;;;;3.33;2.93;;;23.20;82.20;;;;;;4949421;29;20432;-74
2022/07/23 04:11:55;;;;;;;3.83;2.90;;;23.20;82.20;;;;;;4934856;29;20553;-74
2022/07/23 04:14:21;;;;;;;3.37;3.07;;;23.20;82.20;;;;;;4936921;29;20493;-75
2022/07/23 04:16:48;;;;;;;2.80;2.60;;;23.20;82.20;;;;;;4933744;29;20407;-75
2022/07/23 04:19:14;;;;;;;3.50;3.00;;;23.10;82.10;;;;;;4933794;29;20813;-74
2022/07/23 04:21:52;;;;;;;3.47;2.77;;;23.10;82.10;;;;;;4917547;29;20475;-75
2022/07/23 04:24:21;;;;;;;3.10;2.80;;;23.10;82.00;;;;;;4922723;29;20426;-74
2022/07/23 04:26:49;;;;;;;3.73;3.37;;;23.10;82.10;;;;;;4936869;29;20419;-75
2022/07/23 04:29:20;;;;;;;3.77;3.47;;;23.10;82.20;;;;;;4964933;28;20442;-75
2022/07/23 04:31:46;;;;;;;2.70;2.50;;;23.10;82.20;;;;;;4933551;29;20769;-74
2022/07/23 04:34:12;;;;;;;3.73;3.40;;;23.10;82.20;;;;;;4946345;29;20548;-74
2022/07/23 04:36:41;;;;;;;2.83;2.60;;;23.10;82.10;;;;;;4940609;29;20454;-75
2022/07/23 04:39:10;;;;;;;2.93;2.60;;;23.10;82.10;;;;;;4954789;29;20420;-75
2022/07/23 04:41:38;;;;;;;3.10;2.47;;;23.00;82.10;;;;;;4972394;28;21038;-75
2022/07/23 04:44:09;;;;;;;2.80;2.60;;;23.00;82.10;;;;;;4938247;29;20493;-75
2022/07/23 04:46:36;;;;;;;3.70;3.00;;;23.00;82.10;;;;;;4936975;29;20442;-74
2022/07/23 04:49:10;;;;;;;2.60;2.10;;;23.00;82.10;;;;;;4923242;29;20451;-74
2022/07/23 04:51:39;;;;;;;3.33;3.03;;;23.00;82.10;;;;;;4924099;29;20462;-74
2022/07/23 04:54:05;;;;;;;6.37;2.90;;;23.00;82.20;;;;;;4938634;29;20848;-75
2022/07/23 04:56:31;;;;;;;3.20;2.60;;;23.00;82.20;;;;;;4937095;29;20444;-75
2022/07/23 04:58:57;;;;;;;3.10;2.80;;;23.00;82.20;;;;;;4937646;29;20838;-74
2022/07/23 05:01:24;;;;;;;2.83;2.63;;;23.00;82.20;;;;;;4936602;29;20463;-75
2022/07/23 05:03:50;;;;;;;3.30;3.00;;;23.00;82.40;;;;;;4931575;29;20535;-75
2022/07/23 05:06:20;;;;;;;7.93;2.87;;;23.00;82.40;;;;;;4955488;29;20514;-75
2022/07/23 05:08:47;;;;;;;4.30;3.27;;;22.90;82.30;;;;;;4935802;29;20550;-75
2022/07/23 05:11:13;;;;;;;3.00;2.43;;;22.90;82.20;;;;;;4921079;29;20881;-75
2022/07/23 05:13:39;;;;;;;3.00;2.70;;;22.90;82.30;;;;;;4946238;28;20431;-75
2022/07/23 05:16:07;;;;;;;3.00;2.80;;;22.90;82.30;;;;;;4938263;29;20431;-75
2022/07/23 05:18:35;;;;;;;4.30;2.77;;;22.90;82.40;;;;;;4955309;28;20427;-75
2022/07/23 05:21:04;;;;;;;2.87;2.67;;;22.90;82.50;;;;;;4937771;29;20478;-75
2022/07/23 05:23:30;;;;;;;4.80;3.10;;;22.90;82.70;;;;;;4955695;29;20979;-75
2022/07/23 05:26:01;;;;;;;3.60;3.30;;;22.90;82.70;;;;;;4924588;29;20444;-75
2022/07/23 05:28:27;;;;;;;3.50;2.70;;;22.90;82.80;;;;;;4941361;29;20424;-75
2022/07/23 05:30:54;;;;;;;3.20;2.90;;;22.90;82.80;;;;;;4939626;29;20451;-75
2022/07/23 05:33:25;;;;;;;3.07;2.70;;;22.90;82.90;;;;;;4964646;28;20832;-75
2022/07/23 05:36:03;;;;;;;3.20;2.80;;;22.80;82.90;;;;;;4955503;29;20407;-75
2022/07/23 05:38:32;;;;;;;3.13;2.67;;;22.80;82.90;;;;;;4948928;28;20445;-75
2022/07/23 05:41:00;;;;;;;3.27;2.97;;;22.80;83.00;;;;;;4914225;29;20482;-74
2022/07/23 05:43:29;;;;;;;5.40;3.30;;;22.80;83.10;;;;;;4920335;29;20941;-74
2022/07/23 05:46:12;;;;;;;4.40;2.90;;;22.80;83.00;;;;;;4932060;29;20522;-75
2022/07/23 05:48:45;;;;;;;3.57;3.27;;;22.80;83.00;;;;;;4914566;29;20428;-74
2022/07/23 05:51:34;;;;;;;4.70;2.80;;;22.80;83.10;;;;;;4916690;29;21163;-75
2022/07/23 05:54:00;;;;;;;3.43;3.10;;;22.80;83.00;;;;;;4931657;29;20423;-75
2022/07/23 05:56:32;;;;;;;3.03;2.70;;;22.80;83.10;;;;;;4920329;29;20415;-75
2022/07/23 05:58:58;;;;;;;3.43;3.00;;;22.80;83.20;;;;;;4949207;28;20451;-74
2022/07/23 06:01:24;;;;;;;4.03;3.00;;;22.80;83.10;;;;;;4950968;29;20551;-74
2022/07/23 06:04:04;;;;;;;4.20;2.50;;;22.70;83.10;;;;;;4935391;29;20482;-75
2022/07/23 06:06:53;;;;;;;3.43;3.03;;;22.70;83.10;;;;;;4936815;29;20428;-75
2022/07/23 06:09:19;;;;;;;4.97;3.07;;;22.70;83.30;;;;;;4948925;29;20460;-75
2022/07/23 06:11:45;;;;;;;2.80;2.60;;;22.70;83.30;;;;;;4951671;29;20486;-75
2022/07/23 06:14:11;;;;;;;3.77;3.47;;;22.70;83.20;;;;;;4949928;29;20431;-74
2022/07/23 06:16:50;;;;;;;3.60;3.23;;;22.70;83.20;;;;;;4926289;29;20496;-73
2022/07/23 06:19:20;;;;;;;4.47;3.60;;;22.70;83.30;;;;;;4967585;28;20835;-75
2022/07/23 06:21:50;;;;;;;3.23;2.93;;;22.70;83.40;;;;;;4965930;28;20883;-75
2022/07/23 06:24:16;;;;;;;3.57;3.27;;;22.70;83.30;;;;;;4936854;29;20420;-75
2022/07/23 06:26:43;;;;;;;4.50;2.90;;;22.70;83.10;;;;;;4961757;28;20495;-75
2022/07/23 06:29:11;;;;;;;3.90;3.60;;;22.70;83.20;;;;;;4947070;28;20458;-75
2022/07/23 06:31:37;;;;;;;3.00;2.80;;;22.70;83.20;;;;;;4935753;29;20557;-75
2022/07/23 06:34:04;;;;;;;3.87;2.80;;;22.70;83.40;;;;;;4936210;29;20505;-75
2022/07/23 06:36:30;;;;;;;4.90;3.40;;;22.70;83.30;;;;;;4951573;29;20449;-74
2022/07/23 06:38:56;;;;;;;4.70;3.30;;;22.70;83.30;;;;;;4952028;29;20443;-75
2022/07/23 06:41:24;;;;;;;5.53;3.20;;;22.70;83.40;;;;;;4949739;29;20473;-75
2022/07/23 06:43:55;;;;;;;3.60;3.30;;;22.70;83.30;;;;;;4923180;29;20493;-75
2022/07/23 06:46:21;;;;;;;3.60;3.30;;;22.70;83.30;;;;;;4918347;29;20565;-75
2022/07/23 06:48:49;;;;;;;3.60;3.30;;;22.70;83.40;;;;;;4933183;28;20419;-75
2022/07/23 06:51:15;;;;;;;4.27;3.37;;;22.70;83.40;;;;;;4951769;28;20456;-75
2022/07/23 06:54:02;;;;;;;3.87;3.47;;;22.70;83.40;;;;;;4938351;28;20434;-75
2022/07/23 06:56:28;;;;;;;3.97;3.40;;;22.70;83.40;;;;;;4934974;29;20518;-75
2022/07/23 06:58:59;;;;;;;3.30;3.00;;;22.70;83.40;;;;;;4934226;29;20428;-75
2022/07/23 07:01:26;;;;;;;3.70;3.40;;;22.70;83.50;;;;;;4951555;28;20499;-75
2022/07/23 07:03:55;;;;;;;3.50;3.20;;;22.60;83.30;;;;;;4934975;29;20429;-75
2022/07/23 07:06:21;;;;;;;4.17;3.27;;;22.60;83.40;;;;;;4963068;28;20417;-74
2022/07/23 07:08:47;;;;;;;5.20;3.50;;;22.70;83.50;;;;;;4969730;28;20994;-74
2022/07/23 07:11:21;;;;;;;4.43;3.63;;;22.60;83.50;;;;;;4951059;29;20465;-75
2022/07/23 07:13:52;;;;;;;5.03;4.10;;;22.60;83.40;;;;;;4949077;29;20461;-75
2022/07/23 07:16:18;;;;;;;4.20;3.53;;;22.70;83.60;;;;;;4927601;29;20978;-74
2022/07/23 07:18:44;;;;;;;5.60;4.00;;;22.60;83.50;;;;;;4934358;29;20440;-74
2022/07/23 07:21:33;;;;;;;4.60;4.17;;;22.60;83.50;;;;;;4867465;29;20572;-74
2022/07/23 07:23:59;;;;;;;4.57;4.13;;;22.70;83.70;;;;;;4927940;29;20464;-74
2022/07/23 07:26:30;;;;;;;5.53;3.97;;;22.60;83.60;;;;;;4948828;29;20502;-74
2022/07/23 07:29:01;;;;;;;4.67;4.23;;;22.60;83.50;;;;;;4946962;28;20451;-73
2022/07/23 07:31:29;;;;;;;6.33;4.30;;;22.60;83.60;;;;;;4966642;28;20451;-73
2022/07/23 07:33:58;;;;;;;7.00;4.30;;;22.60;83.70;;;;;;4951194;29;20876;-73
2022/07/23 07:36:24;;;;;;;7.20;4.17;;;22.60;83.60;;;;;;4934500;29;20465;-73
2022/07/23 07:38:50;;;;;;;4.83;4.20;;;22.60;83.50;;;;;;4935267;29;20468;-73
2022/07/23 07:41:22;;;;;;;4.70;4.30;;;22.60;83.50;;;;;;4939587;29;20475;-73
2022/07/23 07:43:51;;;;;;;4.90;4.50;;;22.70;83.60;;;;;;4960027;28;20976;-73
2022/07/23 07:46:17;;;;;;;5.20;4.40;;;22.60;83.50;;;;;;4947656;29;20918;-73
2022/07/23 07:48:44;;;;;;;5.43;4.23;;;22.60;83.40;;;;;;4947763;29;20829;-73
2022/07/23 07:51:10;;;;;;;5.03;4.10;;;22.60;83.40;;;;;;4978479;28;21006;-73
2022/07/23 07:53:39;;;;;;;5.00;4.50;;;22.60;83.40;;;;;;4944703;29;20526;-73
2022/07/23 07:56:05;;;;;;;7.37;4.37;;;22.70;83.60;;;;;;4952738;29;20415;-73
2022/07/23 07:58:33;;;;;;;8.40;5.10;;;22.70;83.50;;;;;;4951457;29;20439;-73
2022/07/23 08:01:00;;;;;;;5.57;4.87;;;22.70;83.60;;;;;;4933811;29;20467;-74
2022/07/23 08:03:26;;;;;;;8.30;5.13;;;22.70;83.60;;;;;;4966913;28;20509;-74
2022/07/23 08:05:56;;;;;;;9.73;5.20;;;22.60;83.40;;;;;;4954225;28;20447;-73
2022/07/23 08:08:24;;;;;;;8.47;6.17;;;22.70;83.50;;;;;;4937756;29;20431;-73
2022/07/23 08:10:50;;;;;;;6.33;5.73;;;22.70;83.50;;;;;;4953882;29;20445;-73
2022/07/23 08:13:19;;;;;;;6.57;5.97;;;22.70;83.30;;;;;;4953979;28;20457;-73
2022/07/23 08:16:23;;;;;;;8.50;6.73;;;22.70;83.40;;;;;;4895691;29;20433;-73
2022/07/23 08:18:49;;;;;;;7.57;6.80;;;22.70;83.30;;;;;;4894110;29;20450;-74
2022/07/23 08:21:27;;;;;;;7.67;6.80;;;22.70;83.20;;;;;;4894602;29;20473;-77
2022/07/23 08:23:53;;;;;;;9.23;8.20;;;22.70;83.10;;;;;;4895988;29;20433;-74
2022/07/23 08:26:19;;;;;;;8.23;7.43;;;22.80;83.40;;;;;;4895520;29;20288;-75
2022/07/23 08:28:48;;;;;;;8.70;7.00;;;22.80;83.50;;;;;;4895825;29;20904;-75
2022/07/23 08:31:16;;;;;;;7.40;6.70;;;22.80;83.30;;;;;;4879818;29;20456;-77
2022/07/23 08:33:49;;;;;;;8.27;6.97;;;22.80;83.10;;;;;;4895119;29;20454;-76
2022/07/23 08:36:19;;;;;;;7.90;7.20;;;22.80;83.00;;;;;;4881439;29;20962;-75
2022/07/23 08:38:45;;;;;;;7.20;6.50;;;22.80;83.00;;;;;;4896819;29;20465;-82
2022/07/23 08:41:16;;;;;;;7.50;6.80;;;22.80;82.90;;;;;;4871389;29;21046;-76
2022/07/23 08:43:42;;;;;;;7.43;6.70;;;22.80;82.90;;;;;;4879111;29;20513;-76
2022/07/23 08:46:13;;;;;;;9.27;6.27;;;22.80;82.70;;;;;;4883154;29;20553;-75
2022/07/23 08:48:44;;;;;;;7.70;5.93;;;22.90;82.90;;;;;;4917838;29;20400;-78
2022/07/23 08:51:10;;;;;;;6.23;5.63;;;22.90;82.80;;;;;;4960634;28;20443;-75
2022/07/23 08:53:37;;;;;;;6.57;5.20;;;22.90;82.70;;;;;;4959669;28;20492;-75
2022/07/23 08:56:06;;;;;;;6.80;6.13;;;22.90;82.60;;;;;;4918110;29;20455;-75
2022/07/23 08:58:32;;;;;;;5.90;5.30;;;22.90;82.60;;;;;;4940844;28;20920;-78
2022/07/23 09:00:59;;;;;;;6.10;5.23;;;23.00;82.80;;;;;;4968697;28;20470;-77
2022/07/23 09:03:33;;;;;;;6.83;5.77;;;23.00;82.80;;;;;;4955315;29;20468;-76
2022/07/23 09:06:01;;;;;;;6.43;5.83;;;23.00;82.60;;;;;;4925530;29;20514;-75
2022/07/23 09:08:33;;;;;;;6.57;5.70;;;23.00;82.40;;;;;;4938215;29;20426;-75
2022/07/23 09:11:04;;;;;;;5.43;4.93;;;23.00;82.20;;;;;;4954648;28;20454;-75
2022/07/23 09:13:45;;;;;;;6.20;4.80;;;23.00;82.10;;;;;;4954479;28;20455;-75
2022/07/23 09:16:14;;;;;;;8.07;5.23;;;23.00;82.00;;;;;;4937704;29;20578;-75
2022/07/23 09:18:45;;;;;;;4.97;4.50;;;23.10;82.00;;;;;;4936151;29;20758;-74
2022/07/23 09:21:19;;;;;;;6.10;5.10;;;23.10;81.90;;;;;;4937266;29;20490;-75
2022/07/23 09:23:59;;;;;;;5.40;4.87;;;23.10;81.70;;;;;;4931912;29;20805;-74
2022/07/23 09:26:25;;;;;;;5.00;4.47;;;23.10;81.60;;;;;;4948369;29;20482;-79
2022/07/23 09:29:02;;;;;;;4.27;3.87;;;23.20;81.50;;;;;;4969805;28;20844;-77
2022/07/23 09:31:47;;;;;;;5.20;4.40;;;23.20;81.40;;;;;;4971912;28;20458;-76
2022/07/23 09:34:15;;;;;;;6.30;4.47;;;23.20;81.30;;;;;;4948720;29;20466;-77
2022/07/23 09:36:41;;;;;;;6.13;4.27;;;23.20;81.20;;;;;;4944615;29;20611;-77
2022/07/23 09:39:08;;;;;;;4.10;3.70;;;23.30;81.10;;;;;;4934559;29;20489;-74
2022/07/23 09:41:44;;;;;;;8.43;3.90;;;23.30;80.80;;;;;;4931003;29;20838;-71
2022/07/23 09:44:11;;;;;;;4.60;4.10;;;23.30;80.50;;;;;;4952116;29;20426;-77
2022/07/23 09:46:39;;;;;;;4.50;4.10;;;23.30;80.50;;;;;;4950452;29;20456;-76
2022/07/23 09:49:17;;;;;;;3.90;3.57;;;23.40;80.40;;;;;;4952668;29;20794;-75
2022/07/23 09:51:57;;;;;;;4.57;3.63;;;23.40;80.40;;;;;;4940444;29;20541;-76
2022/07/23 09:54:44;;;;;;;4.00;3.60;;;23.40;80.20;;;;;;4956595;29;20439;-78
2022/07/23 09:57:15;;;;;;;6.60;3.50;;;23.50;80.10;;;;;;4957693;29;20468;-81
2022/07/23 09:59:44;;;;;;;3.77;3.47;;;23.50;79.90;;;;;;4960079;29;20935;-76
2022/07/23 10:02:14;;;;;;;4.30;3.70;;;23.60;79.90;;;;;;4954785;29;20464;-77
2022/07/23 10:05:04;;;;;;;4.00;3.60;;;23.50;79.60;;;;;;4916389;29;20472;-77
2022/07/23 10:08:10;;;;;;;5.70;3.60;;;23.60;79.50;;;;;;4942447;29;20419;-77
2022/07/23 10:10:58;;;;;;;3.70;3.40;;;23.70;79.60;;;;;;4950695;29;20780;-74
2022/07/23 10:16:19;;;;;;;3.17;2.80;;;23.70;79.20;;;;;;4956162;28;20458;-75
2022/07/23 10:18:49;;;;;;;7.27;3.27;;;23.80;79.20;;;;;;4947351;28;20502;-78
2022/07/23 10:21:45;;;;;;;3.37;3.07;;;23.80;78.90;;;;;;4973349;28;20501;-77
2022/07/23 10:24:52;;;;;;;3.57;3.27;;;23.80;78.80;;;;;;4942193;28;20914;-78
2022/07/23 10:27:24;;;;;;;3.30;3.00;;;23.80;78.70;;;;;;4896012;29;20441;-77
2022/07/23 10:30:37;;;;;;;5.77;2.87;;;23.90;78.70;;;;;;4933522;28;20451;-78
2022/07/23 10:33:53;;;;;;;4.50;3.07;;;23.90;78.50;;;;;;4909440;29;20465;-77
2022/07/23 10:36:22;;;;;;;3.17;2.87;;;23.90;78.20;;;;;;4884272;29;20425;-74
2022/07/23 10:39:16;;;;;;;3.63;3.20;;;24.00;78.20;;;;;;4937522;29;20473;-80
2022/07/23 10:42:20;;;;;;;5.67;3.57;;;24.00;78.10;;;;;;4953211;28;20469;-74
2022/07/23 10:44:49;;;;;;;3.20;2.87;;;24.10;78.10;;;;;;4958236;28;20435;-78
2022/07/23 10:47:42;;;;;;;3.20;2.90;;;24.10;78.10;;;;;;4937535;29;20837;-76
2022/07/23 10:50:27;;;;;;;2.93;2.60;;;24.10;78.00;;;;;;4936976;29;20490;-76
2022/07/23 10:53:18;;;;;;;8.93;3.17;;;24.20;78.00;;;;;;4952045;29;20514;-76
2022/07/23 10:55:52;;;;;;;3.27;2.60;;;24.20;78.00;;;;;;4951401;28;20994;-78
2022/07/23 10:58:42;;;;;;;3.00;2.70;;;24.20;77.90;;;;;;4938197;29;20434;-78
2022/07/23 11:01:40;;;;;;;2.70;2.50;;;24.30;77.90;;;;;;4942408;29;20464;-75
2022/07/23 11:04:07;;;;;;;3.70;3.07;;;24.30;77.70;;;;;;4942403;29;20415;-75
2022/07/23 11:07:07;;;;;;;5.13;3.10;;;24.40;77.50;;;;;;4898382;28;20493;-74
2022/07/23 11:09:41;;;;;;;3.67;3.03;;;24.40;77.40;;;;;;4937602;28;20443;-76
2022/07/23 11:12:13;;;;;;;3.10;2.67;;;24.40;77.20;;;;;;4956986;28;20502;-76
2022/07/23 11:14:58;;;;;;;4.07;2.60;;;24.50;77.00;;;;;;4939086;29;20821;-77
2022/07/23 11:17:28;;;;;;;6.10;3.07;;;24.50;76.90;;;;;;4945937;29;20447;-77
2022/07/23 11:20:09;;;;;;;3.47;3.17;;;24.60;76.70;;;;;;4972247;28;20456;-77
2022/07/23 11:22:43;;;;;;;2.87;2.67;;;24.60;76.50;;;;;;4932347;29;20475;-77
2022/07/23 11:25:29;;;;;;;3.87;2.40;;;24.60;76.30;;;;;;4945845;29;20451;-77
2022/07/23 11:28:08;;;;;;;3.13;2.70;;;24.70;76.20;;;;;;4955275;29;20433;-77
2022/07/23 11:30:44;;;;;;;3.20;2.90;;;24.70;76.10;;;;;;4937935;29;21004;-77
2022/07/23 11:33:13;;;;;;;2.60;2.40;;;24.70;76.10;;;;;;4955540;29;20448;-77
2022/07/23 11:35:46;;;;;;;2.90;2.70;;;24.80;76.00;;;;;;4948722;29;20470;-77
2022/07/23 11:38:18;;;;;;;2.40;2.20;;;24.80;76.00;;;;;;4955587;28;20969;-78
2022/07/23 11:40:50;;;;;;;3.00;2.63;;;24.90;76.10;;;;;;4944527;28;20468;-78
2022/07/23 11:43:17;;;;;;;3.90;3.30;;;24.90;76.00;;;;;;4940213;29;20801;-77
2022/07/23 11:45:46;;;;;;;2.50;2.30;;;24.90;75.80;;;;;;4948334;28;20463;-76
2022/07/23 11:48:20;;;;;;;2.73;2.47;;;24.90;75.50;;;;;;4942296;29;20522;-76
2022/07/23 11:50:48;;;;;;;3.10;2.63;;;25.00;75.50;;;;;;4952188;28;20452;-75
2022/07/23 11:53:25;;;;;;;2.47;2.27;;;25.00;75.20;;;;;;4929396;29;21075;-76
2022/07/23 11:55:52;;;;;;;3.30;3.00;;;25.00;75.20;;;;;;4953688;29;20505;-77
2022/07/23 11:58:21;;;;;;;4.40;2.77;;;25.10;75.20;;;;;;4952247;29;20407;-77
2022/07/23 12:00:50;;;;;;;2.93;2.73;;;25.10;75.00;;;;;;4950983;28;20469;-77
2022/07/23 12:03:24;;;;;;;3.40;2.80;;;25.20;75.00;;;;;;4935152;29;20443;-77
2022/07/23 12:05:57;;;;;;;2.90;2.47;;;25.20;74.90;;;;;;4938086;29;20430;-77
2022/07/23 12:08:23;;;;;;;3.10;2.70;;;25.20;74.70;;;;;;4933501;29;20451;-75
2022/07/23 12:10:49;;;;;;;2.80;2.60;;;25.30;74.80;;;;;;4938894;29;20465;-78
2022/07/23 12:13:22;;;;;;;2.63;2.43;;;25.30;75.60;;;;;;4956354;28;20443;-78
2022/07/23 12:15:51;;;;;;;3.03;2.70;;;25.30;74.70;;;;;;4945716;29;20420;-78
2022/07/23 12:18:27;;;;;;;2.83;2.63;;;25.40;74.70;;;;;;4937210;29;20410;-77
2022/07/23 12:20:58;;;;;;;2.90;2.57;;;25.40;74.50;;;;;;4935940;29;20478;-77
2022/07/23 12:23:26;;;;;;;2.60;2.40;;;25.40;74.40;;;;;;4937750;29;20767;-76
2022/07/23 12:25:55;;;;;;;3.07;2.80;;;25.40;74.30;;;;;;4949313;29;20458;-76
2022/07/23 12:28:32;;;;;;;2.83;2.60;;;25.50;74.20;;;;;;4948852;28;20448;-75
2022/07/23 12:31:01;;;;;;;3.03;2.77;;;25.50;73.80;;;;;;4943670;28;20529;-76
2022/07/23 12:33:34;;;;;;;3.90;2.60;;;25.50;73.80;;;;;;4954966;28;20423;-77
2022/07/23 12:36:07;;;;;;;2.87;2.67;;;25.60;73.90;;;;;;4947122;29;20454;-76
2022/07/23 12:38:43;;;;;;;2.90;2.60;;;25.60;73.70;;;;;;4949517;28;20428;-74
2022/07/23 12:41:10;;;;;;;2.80;2.60;;;25.60;73.60;;;;;;4968424;28;20995;-75
2022/07/23 12:43:42;;;;;;;3.50;3.10;;;25.70;73.40;;;;;;4952684;28;20435;-74
2022/07/23 12:46:08;;;;;;;2.60;2.40;;;25.70;73.40;;;;;;4942582;29;20467;-77
2022/07/23 12:48:53;;;;;;;5.10;2.50;;;25.70;73.20;;;;;;4952753;28;20440;-77
2022/07/23 12:51:20;;;;;;;3.53;3.07;;;25.80;73.20;;;;;;4954293;28;20452;-78
2022/07/23 12:53:50;;;;;;;3.10;2.83;;;25.80;72.80;;;;;;4953591;28;20500;-76
2022/07/23 12:56:28;;;;;;;3.70;2.93;;;25.80;72.60;;;;;;4955594;29;20458;-76
2022/07/23 12:59:03;;;;;;;3.20;2.50;;;25.90;72.60;;;;;;4955943;28;20451;-75
2022/07/23 13:01:32;;;;;;;2.90;2.70;;;25.90;72.40;;;;;;4954387;29;20467;-76
2022/07/23 13:04:07;;;;;;;3.03;2.73;;;25.90;72.40;;;;;;4957377;29;21002;-76
2022/07/23 13:06:57;;;;;;;2.27;2.10;;;26.00;72.40;;;;;;4950687;29;20443;-77
2022/07/23 13:09:26;;;;;;;3.20;2.90;;;26.00;72.40;;;;;;4938531;29;20981;-77
2022/07/23 13:11:55;;;;;;;2.87;2.67;;;26.00;72.10;;;;;;4964536;28;20441;-78